sensor_id;sensor_type;location;lat;lon;timestamp;P1;durP1;ratioP1;P2;durP2;ratioP2
12135;SDS011;6131;56.420;15.548;2024-03-02T00:01:58;155.33;;;30.07;;
12135;SDS011;6131;56.420;15.548;2024-03-02T00:04:24;65.23;;;27.47;;
12135;SDS011;6131;56.420;15.548;2024-03-02T00:06:51;95.20;;;27.17;;
12135;SDS011;6131;56.420;15.548;2024-03-02T00:09:19;66.80;;;25.70;;
12135;SDS011;6131;56.420;15.548;2024-03-02T00:11:45;97.10;;;26.90;;
12135;SDS011;6131;56.420;15.548;2024-03-02T00:14:11;133.87;;;29.13;;
12135;SDS011;6131;56.420;15.548;2024-03-02T00:16:37;124.47;;;27.67;;
12135;SDS011;6131;56.420;15.548;2024-03-02T00:19:05;98.50;;;25.33;;
12135;SDS011;6131;56.420;15.548;2024-03-02T00:21:31;99.37;;;26.90;;
12135;SDS011;6131;56.420;15.548;2024-03-02T00:23:58;107.17;;;26.13;;
12135;SDS011;6131;56.420;15.548;2024-03-02T00:26:24;127.70;;;26.23;;
12135;SDS011;6131;56.420;15.548;2024-03-02T00:28:50;79.57;;;25.90;;
12135;SDS011;6131;56.420;15.548;2024-03-02T00:31:20;87.67;;;25.07;;
12135;SDS011;6131;56.420;15.548;2024-03-02T00:33:47;85.83;;;25.63;;
12135;SDS011;6131;56.420;15.548;2024-03-02T00:36:16;90.13;;;25.57;;
12135;SDS011;6131;56.420;15.548;2024-03-02T00:41:15;98.50;;;23.83;;
12135;SDS011;6131;56.420;15.548;2024-03-02T00:46:23;83.43;;;23.60;;
12135;SDS011;6131;56.420;15.548;2024-03-02T00:48:53;62.67;;;23.40;;
12135;SDS011;6131;56.420;15.548;2024-03-02T00:51:19;88.67;;;23.40;;
12135;SDS011;6131;56.420;15.548;2024-03-02T00:53:46;112.37;;;24.10;;
12135;SDS011;6131;56.420;15.548;2024-03-02T00:56:12;97.27;;;24.37;;
12135;SDS011;6131;56.420;15.548;2024-03-02T00:58:39;61.27;;;21.57;;
12135;SDS011;6131;56.420;15.548;2024-03-02T01:01:05;68.77;;;22.50;;
12135;SDS011;6131;56.420;15.548;2024-03-02T01:03:32;76.13;;;21.53;;
12135;SDS011;6131;56.420;15.548;2024-03-02T01:05:58;69.53;;;21.80;;
12135;SDS011;6131;56.420;15.548;2024-03-02T01:08:24;77.57;;;22.03;;
12135;SDS011;6131;56.420;15.548;2024-03-02T01:10:51;68.20;;;21.73;;
12135;SDS011;6131;56.420;15.548;2024-03-02T01:13:17;63.10;;;21.30;;
12135;SDS011;6131;56.420;15.548;2024-03-02T01:15:43;77.43;;;21.80;;
12135;SDS011;6131;56.420;15.548;2024-03-02T01:18:09;66.03;;;20.80;;
12135;SDS011;6131;56.420;15.548;2024-03-02T01:20:35;109.37;;;24.20;;
12135;SDS011;6131;56.420;15.548;2024-03-02T01:23:01;92.03;;;21.47;;
12135;SDS011;6131;56.420;15.548;2024-03-02T01:25:28;71.47;;;20.50;;
12135;SDS011;6131;56.420;15.548;2024-03-02T01:27:54;121.47;;;22.80;;
12135;SDS011;6131;56.420;15.548;2024-03-02T01:30:20;116.87;;;23.23;;
12135;SDS011;6131;56.420;15.548;2024-03-02T01:32:46;106.00;;;21.90;;
12135;SDS011;6131;56.420;15.548;2024-03-02T01:35:12;73.50;;;22.80;;
12135;SDS011;6131;56.420;15.548;2024-03-02T01:37:39;87.80;;;22.07;;
12135;SDS011;6131;56.420;15.548;2024-03-02T01:40:05;69.10;;;22.03;;
12135;SDS011;6131;56.420;15.548;2024-03-02T01:42:35;66.10;;;21.43;;
12135;SDS011;6131;56.420;15.548;2024-03-02T01:45:01;64.60;;;20.70;;
12135;SDS011;6131;56.420;15.548;2024-03-02T01:47:27;92.37;;;23.00;;
12135;SDS011;6131;56.420;15.548;2024-03-02T01:49:53;87.63;;;22.80;;
12135;SDS011;6131;56.420;15.548;2024-03-02T01:52:19;86.00;;;22.93;;
12135;SDS011;6131;56.420;15.548;2024-03-02T01:54:45;74.87;;;23.30;;
12135;SDS011;6131;56.420;15.548;2024-03-02T01:57:11;84.90;;;22.43;;
12135;SDS011;6131;56.420;15.548;2024-03-02T01:59:37;82.37;;;23.50;;
12135;SDS011;6131;56.420;15.548;2024-03-02T02:02:03;81.23;;;22.73;;
12135;SDS011;6131;56.420;15.548;2024-03-02T02:04:29;86.77;;;22.47;;
12135;SDS011;6131;56.420;15.548;2024-03-02T02:06:55;93.37;;;23.33;;
12135;SDS011;6131;56.420;15.548;2024-03-02T02:09:22;63.90;;;21.43;;
12135;SDS011;6131;56.420;15.548;2024-03-02T02:11:48;86.40;;;23.63;;
12135;SDS011;6131;56.420;15.548;2024-03-02T02:14:14;109.43;;;23.87;;
12135;SDS011;6131;56.420;15.548;2024-03-02T02:16:40;114.67;;;24.93;;
12135;SDS011;6131;56.420;15.548;2024-03-02T02:19:06;86.23;;;23.33;;
12135;SDS011;6131;56.420;15.548;2024-03-02T02:21:32;101.73;;;24.50;;
12135;SDS011;6131;56.420;15.548;2024-03-02T02:23:58;77.10;;;22.40;;
12135;SDS011;6131;56.420;15.548;2024-03-02T02:26:24;78.50;;;22.67;;
12135;SDS011;6131;56.420;15.548;2024-03-02T02:28:50;66.47;;;22.27;;
12135;SDS011;6131;56.420;15.548;2024-03-02T02:31:16;91.60;;;23.57;;
12135;SDS011;6131;56.420;15.548;2024-03-02T02:33:42;68.87;;;22.70;;
12135;SDS011;6131;56.420;15.548;2024-03-02T02:36:08;73.57;;;23.50;;
12135;SDS011;6131;56.420;15.548;2024-03-02T02:38:36;80.70;;;24.13;;
12135;SDS011;6131;56.420;15.548;2024-03-02T02:41:03;77.37;;;22.77;;
12135;SDS011;6131;56.420;15.548;2024-03-02T02:43:29;64.20;;;23.10;;
12135;SDS011;6131;56.420;15.548;2024-03-02T02:45:55;64.07;;;22.77;;
12135;SDS011;6131;56.420;15.548;2024-03-02T02:48:21;59.83;;;22.97;;
12135;SDS011;6131;56.420;15.548;2024-03-02T02:50:47;70.70;;;23.00;;
12135;SDS011;6131;56.420;15.548;2024-03-02T02:53:13;58.40;;;23.00;;
12135;SDS011;6131;56.420;15.548;2024-03-02T02:55:39;53.73;;;22.10;;
12135;SDS011;6131;56.420;15.548;2024-03-02T02:58:06;55.13;;;21.87;;
12135;SDS011;6131;56.420;15.548;2024-03-02T03:00:32;48.40;;;22.60;;
12135;SDS011;6131;56.420;15.548;2024-03-02T03:02:58;47.47;;;22.33;;
12135;SDS011;6131;56.420;15.548;2024-03-02T03:05:24;45.87;;;22.07;;
12135;SDS011;6131;56.420;15.548;2024-03-02T03:07:50;49.77;;;22.33;;
12135;SDS011;6131;56.420;15.548;2024-03-02T03:10:16;51.63;;;22.97;;
12135;SDS011;6131;56.420;15.548;2024-03-02T03:12:42;47.97;;;22.13;;
12135;SDS011;6131;56.420;15.548;2024-03-02T03:15:09;49.67;;;21.67;;
12135;SDS011;6131;56.420;15.548;2024-03-02T03:17:36;49.33;;;22.50;;
12135;SDS011;6131;56.420;15.548;2024-03-02T03:20:02;52.87;;;24.13;;
12135;SDS011;6131;56.420;15.548;2024-03-02T03:22:29;46.33;;;22.83;;
12135;SDS011;6131;56.420;15.548;2024-03-02T03:24:56;48.37;;;22.43;;
12135;SDS011;6131;56.420;15.548;2024-03-02T03:27:22;48.20;;;22.10;;
12135;SDS011;6131;56.420;15.548;2024-03-02T03:29:48;46.90;;;21.67;;
12135;SDS011;6131;56.420;15.548;2024-03-02T03:32:14;47.77;;;22.17;;
12135;SDS011;6131;56.420;15.548;2024-03-02T03:34:41;52.20;;;22.67;;
12135;SDS011;6131;56.420;15.548;2024-03-02T03:37:07;51.40;;;23.23;;
12135;SDS011;6131;56.420;15.548;2024-03-02T03:39:34;51.83;;;23.37;;
12135;SDS011;6131;56.420;15.548;2024-03-02T03:42:01;47.60;;;21.77;;
12135;SDS011;6131;56.420;15.548;2024-03-02T03:44:27;51.13;;;23.07;;
12135;SDS011;6131;56.420;15.548;2024-03-02T03:46:53;50.23;;;22.57;;
12135;SDS011;6131;56.420;15.548;2024-03-02T03:49:18;51.60;;;23.53;;
12135;SDS011;6131;56.420;15.548;2024-03-02T03:51:44;45.97;;;22.40;;
12135;SDS011;6131;56.420;15.548;2024-03-02T03:54:10;46.20;;;22.20;;
12135;SDS011;6131;56.420;15.548;2024-03-02T03:56:37;45.03;;;22.57;;
12135;SDS011;6131;56.420;15.548;2024-03-02T03:59:03;50.03;;;23.30;;
12135;SDS011;6131;56.420;15.548;2024-03-02T04:01:30;44.13;;;21.00;;
12135;SDS011;6131;56.420;15.548;2024-03-02T04:03:56;48.53;;;22.67;;
12135;SDS011;6131;56.420;15.548;2024-03-02T04:06:23;49.20;;;23.67;;
12135;SDS011;6131;56.420;15.548;2024-03-02T04:08:49;50.30;;;23.37;;
12135;SDS011;6131;56.420;15.548;2024-03-02T04:11:15;47.37;;;22.73;;
12135;SDS011;6131;56.420;15.548;2024-03-02T04:13:41;46.33;;;22.80;;
12135;SDS011;6131;56.420;15.548;2024-03-02T04:16:07;46.57;;;23.80;;
12135;SDS011;6131;56.420;15.548;2024-03-02T04:18:33;44.13;;;22.07;;
12135;SDS011;6131;56.420;15.548;2024-03-02T04:20:59;47.23;;;22.93;;
12135;SDS011;6131;56.420;15.548;2024-03-02T04:23:25;43.63;;;22.40;;
12135;SDS011;6131;56.420;15.548;2024-03-02T04:25:51;44.93;;;22.27;;
12135;SDS011;6131;56.420;15.548;2024-03-02T04:28:17;41.07;;;22.47;;
12135;SDS011;6131;56.420;15.548;2024-03-02T04:30:43;45.57;;;22.70;;
12135;SDS011;6131;56.420;15.548;2024-03-02T04:33:10;48.67;;;23.47;;
12135;SDS011;6131;56.420;15.548;2024-03-02T04:35:36;46.00;;;22.73;;
12135;SDS011;6131;56.420;15.548;2024-03-02T04:38:02;43.63;;;23.00;;
12135;SDS011;6131;56.420;15.548;2024-03-02T04:40:28;42.63;;;23.43;;
12135;SDS011;6131;56.420;15.548;2024-03-02T04:42:54;46.63;;;24.53;;
12135;SDS011;6131;56.420;15.548;2024-03-02T04:45:20;47.90;;;23.10;;
12135;SDS011;6131;56.420;15.548;2024-03-02T04:47:46;42.90;;;22.47;;
12135;SDS011;6131;56.420;15.548;2024-03-02T04:50:12;46.70;;;23.70;;
12135;SDS011;6131;56.420;15.548;2024-03-02T04:52:38;47.27;;;24.33;;
12135;SDS011;6131;56.420;15.548;2024-03-02T04:55:04;49.10;;;25.43;;
12135;SDS011;6131;56.420;15.548;2024-03-02T04:58:09;43.80;;;22.00;;
12135;SDS011;6131;56.420;15.548;2024-03-02T05:00:35;47.47;;;23.13;;
12135;SDS011;6131;56.420;15.548;2024-03-02T05:03:01;49.13;;;23.87;;
12135;SDS011;6131;56.420;15.548;2024-03-02T05:05:27;51.70;;;24.73;;
12135;SDS011;6131;56.420;15.548;2024-03-02T05:07:53;46.83;;;24.10;;
12135;SDS011;6131;56.420;15.548;2024-03-02T05:10:19;43.13;;;24.73;;
12135;SDS011;6131;56.420;15.548;2024-03-02T05:12:45;44.77;;;22.83;;
12135;SDS011;6131;56.420;15.548;2024-03-02T05:15:12;48.77;;;23.90;;
12135;SDS011;6131;56.420;15.548;2024-03-02T05:17:42;47.80;;;24.87;;
12135;SDS011;6131;56.420;15.548;2024-03-02T05:20:08;47.10;;;24.53;;
12135;SDS011;6131;56.420;15.548;2024-03-02T05:22:34;50.00;;;24.03;;
12135;SDS011;6131;56.420;15.548;2024-03-02T05:25:01;42.73;;;23.27;;
12135;SDS011;6131;56.420;15.548;2024-03-02T05:27:27;40.30;;;23.43;;
12135;SDS011;6131;56.420;15.548;2024-03-02T05:29:53;42.07;;;23.20;;
12135;SDS011;6131;56.420;15.548;2024-03-02T05:32:19;41.70;;;23.03;;
12135;SDS011;6131;56.420;15.548;2024-03-02T05:34:45;44.00;;;23.00;;
12135;SDS011;6131;56.420;15.548;2024-03-02T05:37:11;46.33;;;22.70;;
12135;SDS011;6131;56.420;15.548;2024-03-02T05:39:37;39.53;;;22.43;;
12135;SDS011;6131;56.420;15.548;2024-03-02T05:42:03;39.43;;;21.43;;
12135;SDS011;6131;56.420;15.548;2024-03-02T05:44:29;35.60;;;20.87;;
12135;SDS011;6131;56.420;15.548;2024-03-02T05:46:55;37.40;;;21.70;;
12135;SDS011;6131;56.420;15.548;2024-03-02T05:49:21;43.43;;;21.53;;
12135;SDS011;6131;56.420;15.548;2024-03-02T05:51:47;32.73;;;20.43;;
12135;SDS011;6131;56.420;15.548;2024-03-02T05:54:13;36.57;;;20.77;;
12135;SDS011;6131;56.420;15.548;2024-03-02T05:56:39;31.87;;;19.37;;
12135;SDS011;6131;56.420;15.548;2024-03-02T05:59:05;32.73;;;19.80;;
12135;SDS011;6131;56.420;15.548;2024-03-02T06:01:44;34.03;;;19.83;;
12135;SDS011;6131;56.420;15.548;2024-03-02T06:04:16;33.50;;;19.60;;
12135;SDS011;6131;56.420;15.548;2024-03-02T06:06:42;32.53;;;18.93;;
12135;SDS011;6131;56.420;15.548;2024-03-02T06:09:09;31.83;;;19.57;;
12135;SDS011;6131;56.420;15.548;2024-03-02T06:11:37;31.83;;;19.27;;
12135;SDS011;6131;56.420;15.548;2024-03-02T06:14:07;32.20;;;18.83;;
12135;SDS011;6131;56.420;15.548;2024-03-02T06:16:33;30.53;;;18.03;;
12135;SDS011;6131;56.420;15.548;2024-03-02T06:18:59;32.97;;;19.60;;
12135;SDS011;6131;56.420;15.548;2024-03-02T06:21:26;29.73;;;18.57;;
12135;SDS011;6131;56.420;15.548;2024-03-02T06:23:52;29.63;;;18.97;;
12135;SDS011;6131;56.420;15.548;2024-03-02T06:26:18;30.93;;;18.70;;
12135;SDS011;6131;56.420;15.548;2024-03-02T06:28:44;27.60;;;17.67;;
12135;SDS011;6131;56.420;15.548;2024-03-02T06:31:10;28.83;;;18.40;;
12135;SDS011;6131;56.420;15.548;2024-03-02T06:33:37;28.83;;;17.57;;
12135;SDS011;6131;56.420;15.548;2024-03-02T06:36:05;26.83;;;17.10;;
12135;SDS011;6131;56.420;15.548;2024-03-02T06:38:33;28.00;;;17.07;;
12135;SDS011;6131;56.420;15.548;2024-03-02T06:40:59;29.33;;;18.00;;
12135;SDS011;6131;56.420;15.548;2024-03-02T06:43:25;27.57;;;17.03;;
12135;SDS011;6131;56.420;15.548;2024-03-02T06:45:51;28.93;;;17.40;;
12135;SDS011;6131;56.420;15.548;2024-03-02T06:48:17;26.97;;;17.43;;
12135;SDS011;6131;56.420;15.548;2024-03-02T06:50:48;29.10;;;17.03;;
12135;SDS011;6131;56.420;15.548;2024-03-02T06:53:15;26.70;;;16.90;;
12135;SDS011;6131;56.420;15.548;2024-03-02T06:55:43;27.17;;;17.00;;
12135;SDS011;6131;56.420;15.548;2024-03-02T06:58:10;24.13;;;15.47;;
12135;SDS011;6131;56.420;15.548;2024-03-02T07:00:36;24.80;;;15.97;;
12135;SDS011;6131;56.420;15.548;2024-03-02T07:03:02;25.73;;;17.37;;
12135;SDS011;6131;56.420;15.548;2024-03-02T07:05:28;27.60;;;17.03;;
12135;SDS011;6131;56.420;15.548;2024-03-02T07:07:54;25.73;;;17.07;;
12135;SDS011;6131;56.420;15.548;2024-03-02T07:10:20;24.93;;;16.57;;
12135;SDS011;6131;56.420;15.548;2024-03-02T07:12:46;31.10;;;16.33;;
12135;SDS011;6131;56.420;15.548;2024-03-02T07:15:12;26.73;;;16.30;;
12135;SDS011;6131;56.420;15.548;2024-03-02T07:17:53;29.80;;;17.87;;
12135;SDS011;6131;56.420;15.548;2024-03-02T07:20:19;32.20;;;18.83;;
12135;SDS011;6131;56.420;15.548;2024-03-02T07:22:45;28.53;;;17.77;;
12135;SDS011;6131;56.420;15.548;2024-03-02T07:25:11;27.23;;;17.20;;
12135;SDS011;6131;56.420;15.548;2024-03-02T07:27:38;28.10;;;17.53;;
12135;SDS011;6131;56.420;15.548;2024-03-02T07:30:04;30.73;;;17.43;;
12135;SDS011;6131;56.420;15.548;2024-03-02T07:32:30;29.43;;;17.87;;
12135;SDS011;6131;56.420;15.548;2024-03-02T07:34:56;30.80;;;17.57;;
12135;SDS011;6131;56.420;15.548;2024-03-02T07:37:25;28.73;;;17.70;;
12135;SDS011;6131;56.420;15.548;2024-03-02T07:39:51;31.30;;;19.93;;
12135;SDS011;6131;56.420;15.548;2024-03-02T07:42:17;30.43;;;18.80;;
12135;SDS011;6131;56.420;15.548;2024-03-02T07:44:46;30.57;;;18.90;;
12135;SDS011;6131;56.420;15.548;2024-03-02T07:47:12;33.43;;;18.00;;
12135;SDS011;6131;56.420;15.548;2024-03-02T07:49:38;34.73;;;19.33;;
12135;SDS011;6131;56.420;15.548;2024-03-02T07:52:04;34.73;;;19.30;;
12135;SDS011;6131;56.420;15.548;2024-03-02T07:54:30;31.23;;;17.93;;
12135;SDS011;6131;56.420;15.548;2024-03-02T07:56:56;36.17;;;18.97;;
12135;SDS011;6131;56.420;15.548;2024-03-02T07:59:22;32.83;;;19.13;;
12135;SDS011;6131;56.420;15.548;2024-03-02T08:01:48;37.97;;;19.83;;
12135;SDS011;6131;56.420;15.548;2024-03-02T08:04:15;33.97;;;17.93;;
12135;SDS011;6131;56.420;15.548;2024-03-02T08:06:41;34.37;;;19.47;;
12135;SDS011;6131;56.420;15.548;2024-03-02T08:09:08;34.63;;;19.00;;
12135;SDS011;6131;56.420;15.548;2024-03-02T08:11:37;31.70;;;18.93;;
12135;SDS011;6131;56.420;15.548;2024-03-02T08:14:03;33.60;;;18.83;;
12135;SDS011;6131;56.420;15.548;2024-03-02T08:16:29;33.37;;;18.87;;
12135;SDS011;6131;56.420;15.548;2024-03-02T08:18:55;32.87;;;18.17;;
12135;SDS011;6131;56.420;15.548;2024-03-02T08:21:24;29.23;;;17.90;;
12135;SDS011;6131;56.420;15.548;2024-03-02T08:23:50;29.57;;;18.07;;
12135;SDS011;6131;56.420;15.548;2024-03-02T08:26:17;29.80;;;17.10;;
12135;SDS011;6131;56.420;15.548;2024-03-02T08:28:43;31.20;;;18.27;;
12135;SDS011;6131;56.420;15.548;2024-03-02T08:31:09;31.37;;;18.80;;
12135;SDS011;6131;56.420;15.548;2024-03-02T08:33:35;31.40;;;19.03;;
12135;SDS011;6131;56.420;15.548;2024-03-02T08:36:01;31.63;;;18.57;;
12135;SDS011;6131;56.420;15.548;2024-03-02T08:38:27;35.13;;;19.00;;
12135;SDS011;6131;56.420;15.548;2024-03-02T08:40:54;31.10;;;17.53;;
12135;SDS011;6131;56.420;15.548;2024-03-02T08:43:20;33.33;;;19.53;;
12135;SDS011;6131;56.420;15.548;2024-03-02T08:45:47;34.53;;;18.33;;
12135;SDS011;6131;56.420;15.548;2024-03-02T08:48:13;32.27;;;18.27;;
12135;SDS011;6131;56.420;15.548;2024-03-02T08:50:39;35.20;;;18.27;;
12135;SDS011;6131;56.420;15.548;2024-03-02T08:53:05;35.80;;;19.90;;
12135;SDS011;6131;56.420;15.548;2024-03-02T08:55:31;38.90;;;20.77;;
12135;SDS011;6131;56.420;15.548;2024-03-02T08:57:57;43.00;;;20.97;;
12135;SDS011;6131;56.420;15.548;2024-03-02T09:00:23;42.53;;;20.93;;
12135;SDS011;6131;56.420;15.548;2024-03-02T09:02:49;55.40;;;21.53;;
12135;SDS011;6131;56.420;15.548;2024-03-02T09:05:15;39.93;;;21.97;;
12135;SDS011;6131;56.420;15.548;2024-03-02T09:07:41;63.77;;;24.10;;
12135;SDS011;6131;56.420;15.548;2024-03-02T09:10:07;55.10;;;22.83;;
12135;SDS011;6131;56.420;15.548;2024-03-02T09:12:34;49.37;;;22.83;;
12135;SDS011;6131;56.420;15.548;2024-03-02T09:15:00;83.03;;;25.27;;
12135;SDS011;6131;56.420;15.548;2024-03-02T09:17:28;64.20;;;24.87;;
12135;SDS011;6131;56.420;15.548;2024-03-02T09:19:54;59.90;;;23.63;;
12135;SDS011;6131;56.420;15.548;2024-03-02T09:22:20;77.97;;;26.57;;
12135;SDS011;6131;56.420;15.548;2024-03-02T09:24:46;77.20;;;25.03;;
12135;SDS011;6131;56.420;15.548;2024-03-02T09:27:12;65.83;;;25.67;;
12135;SDS011;6131;56.420;15.548;2024-03-02T09:29:38;86.67;;;27.93;;
12135;SDS011;6131;56.420;15.548;2024-03-02T09:32:04;74.40;;;28.30;;
12135;SDS011;6131;56.420;15.548;2024-03-02T09:34:31;72.80;;;26.70;;
12135;SDS011;6131;56.420;15.548;2024-03-02T09:36:57;86.90;;;26.57;;
12135;SDS011;6131;56.420;15.548;2024-03-02T09:39:23;80.30;;;27.17;;
12135;SDS011;6131;56.420;15.548;2024-03-02T09:41:52;73.33;;;27.70;;
12135;SDS011;6131;56.420;15.548;2024-03-02T09:44:19;80.67;;;26.67;;
12135;SDS011;6131;56.420;15.548;2024-03-02T09:46:48;87.37;;;27.20;;
12135;SDS011;6131;56.420;15.548;2024-03-02T09:49:14;68.40;;;29.00;;
12135;SDS011;6131;56.420;15.548;2024-03-02T09:51:41;64.33;;;28.07;;
12135;SDS011;6131;56.420;15.548;2024-03-02T09:54:11;71.20;;;28.80;;
12135;SDS011;6131;56.420;15.548;2024-03-02T09:56:36;90.20;;;30.70;;
12135;SDS011;6131;56.420;15.548;2024-03-02T09:59:02;104.83;;;35.87;;
12135;SDS011;6131;56.420;15.548;2024-03-02T10:01:29;95.27;;;34.27;;
12135;SDS011;6131;56.420;15.548;2024-03-02T10:03:57;109.90;;;31.03;;
12135;SDS011;6131;56.420;15.548;2024-03-02T10:06:25;75.23;;;31.00;;
12135;SDS011;6131;56.420;15.548;2024-03-02T10:08:51;74.10;;;30.33;;
12135;SDS011;6131;56.420;15.548;2024-03-02T10:11:27;85.70;;;30.97;;
12135;SDS011;6131;56.420;15.548;2024-03-02T10:16:39;182.73;;;36.43;;
12135;SDS011;6131;56.420;15.548;2024-03-02T10:19:15;119.73;;;33.80;;
12135;SDS011;6131;56.420;15.548;2024-03-02T10:21:42;73.87;;;31.93;;
12135;SDS011;6131;56.420;15.548;2024-03-02T10:24:08;74.10;;;30.23;;
12135;SDS011;6131;56.420;15.548;2024-03-02T10:26:34;84.67;;;33.77;;
12135;SDS011;6131;56.420;15.548;2024-03-02T10:29:00;72.87;;;31.33;;
12135;SDS011;6131;56.420;15.548;2024-03-02T10:31:27;79.63;;;34.00;;
12135;SDS011;6131;56.420;15.548;2024-03-02T10:33:57;67.33;;;31.97;;
12135;SDS011;6131;56.420;15.548;2024-03-02T10:36:24;70.93;;;32.23;;
12135;SDS011;6131;56.420;15.548;2024-03-02T10:38:51;95.63;;;38.60;;
12135;SDS011;6131;56.420;15.548;2024-03-02T10:41:22;130.00;;;47.23;;
12135;SDS011;6131;56.420;15.548;2024-03-02T10:43:49;443.47;;;108.73;;
12135;SDS011;6131;56.420;15.548;2024-03-02T10:46:16;603.70;;;119.50;;
12135;SDS011;6131;56.420;15.548;2024-03-02T10:48:45;506.13;;;102.13;;
12135;SDS011;6131;56.420;15.548;2024-03-02T10:51:12;176.67;;;54.60;;
12135;SDS011;6131;56.420;15.548;2024-03-02T10:53:38;83.50;;;39.07;;
12135;SDS011;6131;56.420;15.548;2024-03-02T10:56:04;73.67;;;36.13;;
12135;SDS011;6131;56.420;15.548;2024-03-02T10:58:32;57.10;;;30.57;;
12135;SDS011;6131;56.420;15.548;2024-03-02T11:01:00;44.73;;;27.40;;
12135;SDS011;6131;56.420;15.548;2024-03-02T11:03:29;50.60;;;29.63;;
12135;SDS011;6131;56.420;15.548;2024-03-02T11:05:55;53.07;;;29.23;;
12135;SDS011;6131;56.420;15.548;2024-03-02T11:08:21;46.87;;;27.47;;
12135;SDS011;6131;56.420;15.548;2024-03-02T11:10:50;50.97;;;29.53;;
12135;SDS011;6131;56.420;15.548;2024-03-02T11:13:20;48.63;;;28.63;;
12135;SDS011;6131;56.420;15.548;2024-03-02T11:15:49;50.67;;;29.60;;
12135;SDS011;6131;56.420;15.548;2024-03-02T11:18:17;57.70;;;32.40;;
12135;SDS011;6131;56.420;15.548;2024-03-02T11:20:44;57.70;;;30.07;;
12135;SDS011;6131;56.420;15.548;2024-03-02T11:23:11;60.63;;;31.40;;
12135;SDS011;6131;56.420;15.548;2024-03-02T11:25:37;55.30;;;30.47;;
12135;SDS011;6131;56.420;15.548;2024-03-02T11:28:07;58.37;;;31.37;;
12135;SDS011;6131;56.420;15.548;2024-03-02T11:33:09;63.77;;;32.50;;
12135;SDS011;6131;56.420;15.548;2024-03-02T11:35:41;71.47;;;35.70;;
12135;SDS011;6131;56.420;15.548;2024-03-02T11:38:07;63.53;;;34.03;;
12135;SDS011;6131;56.420;15.548;2024-03-02T11:40:34;69.63;;;32.17;;
12135;SDS011;6131;56.420;15.548;2024-03-02T11:43:01;79.73;;;31.70;;
12135;SDS011;6131;56.420;15.548;2024-03-02T11:45:27;68.00;;;32.70;;
12135;SDS011;6131;56.420;15.548;2024-03-02T11:47:54;71.53;;;32.53;;
12135;SDS011;6131;56.420;15.548;2024-03-02T11:50:36;75.30;;;33.03;;
12135;SDS011;6131;56.420;15.548;2024-03-02T11:53:05;78.57;;;34.60;;
12135;SDS011;6131;56.420;15.548;2024-03-02T11:55:33;78.97;;;35.47;;
12135;SDS011;6131;56.420;15.548;2024-03-02T11:58:01;80.80;;;34.50;;
12135;SDS011;6131;56.420;15.548;2024-03-02T12:00:28;85.03;;;34.33;;
12135;SDS011;6131;56.420;15.548;2024-03-02T12:03:04;89.07;;;36.00;;
12135;SDS011;6131;56.420;15.548;2024-03-02T12:05:31;94.80;;;35.73;;
12135;SDS011;6131;56.420;15.548;2024-03-02T12:08:04;87.37;;;36.90;;
12135;SDS011;6131;56.420;15.548;2024-03-02T12:10:31;87.53;;;38.00;;
12135;SDS011;6131;56.420;15.548;2024-03-02T12:15:24;90.87;;;39.40;;
12135;SDS011;6131;56.420;15.548;2024-03-02T12:17:52;86.00;;;38.03;;
12135;SDS011;6131;56.420;15.548;2024-03-02T12:20:18;85.90;;;40.67;;
12135;SDS011;6131;56.420;15.548;2024-03-02T12:22:44;84.20;;;39.50;;
12135;SDS011;6131;56.420;15.548;2024-03-02T12:25:11;87.50;;;40.03;;
12135;SDS011;6131;56.420;15.548;2024-03-02T12:27:38;86.17;;;40.37;;
12135;SDS011;6131;56.420;15.548;2024-03-02T12:30:04;86.17;;;39.40;;
12135;SDS011;6131;56.420;15.548;2024-03-02T12:32:33;87.07;;;39.97;;
12135;SDS011;6131;56.420;15.548;2024-03-02T12:34:59;85.33;;;41.07;;
12135;SDS011;6131;56.420;15.548;2024-03-02T12:37:25;88.53;;;41.40;;
12135;SDS011;6131;56.420;15.548;2024-03-02T12:39:53;89.33;;;42.27;;
12135;SDS011;6131;56.420;15.548;2024-03-02T12:42:19;85.47;;;41.17;;
12135;SDS011;6131;56.420;15.548;2024-03-02T12:44:45;81.43;;;40.40;;
12135;SDS011;6131;56.420;15.548;2024-03-02T12:47:11;81.60;;;41.57;;
12135;SDS011;6131;56.420;15.548;2024-03-02T12:49:39;90.17;;;42.50;;
12135;SDS011;6131;56.420;15.548;2024-03-02T12:52:06;83.07;;;41.50;;
12135;SDS011;6131;56.420;15.548;2024-03-02T12:54:32;92.73;;;40.67;;
12135;SDS011;6131;56.420;15.548;2024-03-02T12:56:58;92.43;;;42.27;;
12135;SDS011;6131;56.420;15.548;2024-03-02T12:59:24;89.70;;;40.80;;
12135;SDS011;6131;56.420;15.548;2024-03-02T13:01:53;88.97;;;42.20;;
12135;SDS011;6131;56.420;15.548;2024-03-02T13:04:25;93.27;;;42.17;;
12135;SDS011;6131;56.420;15.548;2024-03-02T13:06:51;85.20;;;42.57;;
12135;SDS011;6131;56.420;15.548;2024-03-02T13:09:18;87.83;;;42.03;;
12135;SDS011;6131;56.420;15.548;2024-03-02T13:11:44;83.40;;;41.93;;
12135;SDS011;6131;56.420;15.548;2024-03-02T13:14:10;89.47;;;40.73;;
12135;SDS011;6131;56.420;15.548;2024-03-02T13:16:40;92.40;;;42.63;;
12135;SDS011;6131;56.420;15.548;2024-03-02T13:19:09;95.90;;;42.90;;
12135;SDS011;6131;56.420;15.548;2024-03-02T13:21:37;86.20;;;41.10;;
12135;SDS011;6131;56.420;15.548;2024-03-02T13:24:03;85.40;;;41.47;;
12135;SDS011;6131;56.420;15.548;2024-03-02T13:26:29;86.73;;;40.90;;
12135;SDS011;6131;56.420;15.548;2024-03-02T13:28:55;85.37;;;41.27;;
12135;SDS011;6131;56.420;15.548;2024-03-02T13:31:21;80.17;;;39.60;;
12135;SDS011;6131;56.420;15.548;2024-03-02T13:33:47;84.23;;;41.90;;
12135;SDS011;6131;56.420;15.548;2024-03-02T13:36:13;82.03;;;40.53;;
12135;SDS011;6131;56.420;15.548;2024-03-02T13:38:39;86.60;;;42.13;;
12135;SDS011;6131;56.420;15.548;2024-03-02T13:41:05;89.03;;;41.43;;
12135;SDS011;6131;56.420;15.548;2024-03-02T13:43:31;94.70;;;41.97;;
12135;SDS011;6131;56.420;15.548;2024-03-02T13:45:58;77.23;;;40.57;;
12135;SDS011;6131;56.420;15.548;2024-03-02T13:48:24;80.00;;;40.00;;
12135;SDS011;6131;56.420;15.548;2024-03-02T13:50:53;85.67;;;39.73;;
12135;SDS011;6131;56.420;15.548;2024-03-02T13:53:19;91.53;;;41.03;;
12135;SDS011;6131;56.420;15.548;2024-03-02T13:55:45;86.53;;;42.03;;
12135;SDS011;6131;56.420;15.548;2024-03-02T13:58:11;81.93;;;40.00;;
12135;SDS011;6131;56.420;15.548;2024-03-02T14:00:38;85.30;;;40.73;;
12135;SDS011;6131;56.420;15.548;2024-03-02T14:03:04;85.73;;;41.10;;
12135;SDS011;6131;56.420;15.548;2024-03-02T14:05:31;82.53;;;39.57;;
12135;SDS011;6131;56.420;15.548;2024-03-02T14:07:57;89.77;;;40.63;;
12135;SDS011;6131;56.420;15.548;2024-03-02T14:10:25;84.07;;;41.00;;
12135;SDS011;6131;56.420;15.548;2024-03-02T14:12:52;86.70;;;41.53;;
12135;SDS011;6131;56.420;15.548;2024-03-02T14:15:18;78.80;;;38.83;;
12135;SDS011;6131;56.420;15.548;2024-03-02T14:17:44;81.17;;;40.53;;
12135;SDS011;6131;56.420;15.548;2024-03-02T14:20:10;93.03;;;40.00;;
12135;SDS011;6131;56.420;15.548;2024-03-02T14:22:38;86.93;;;41.20;;
12135;SDS011;6131;56.420;15.548;2024-03-02T14:25:04;91.47;;;39.43;;
12135;SDS011;6131;56.420;15.548;2024-03-02T14:27:30;88.60;;;39.97;;
12135;SDS011;6131;56.420;15.548;2024-03-02T14:29:56;90.07;;;41.77;;
12135;SDS011;6131;56.420;15.548;2024-03-02T14:32:22;84.67;;;39.73;;